sensor_id;sensor_type;location;lat;lon;timestamp;pressure;altitude;pressure_sealevel;temperature;humidity
21980;BME280;11154;48.558;9.234;2023-08-06T00:02:00;96809.28;;;18.55;100.00
21980;BME280;11154;48.558;9.234;2023-08-06T00:04:01;96807.63;;;18.54;100.00
21980;BME280;11154;48.558;9.234;2023-08-06T00:06:04;96814.50;;;18.50;100.00
21980;BME280;11154;48.558;9.234;2023-08-06T00:08:06;96804.63;;;18.44;100.00
21980;BME280;11154;48.558;9.234;2023-08-06T00:10:09;96805.09;;;18.41;100.00
21980;BME280;11154;48.558;9.234;2023-08-06T00:12:11;96803.91;;;18.37;100.00
21980;BME280;11154;48.558;9.234;2023-08-06T00:14:12;96796.53;;;18.33;100.00
21980;BME280;11154;48.558;9.234;2023-08-06T00:16:15;96797.56;;;18.32;100.00
21980;BME280;11154;48.558;9.234;2023-08-06T00:18:17;96806.91;;;18.29;100.00
21980;BME280;11154;48.558;9.234;2023-08-06T00:20:19;96803.19;;;18.30;100.00
21980;BME280;11154;48.558;9.234;2023-08-06T00:22:19;96786.66;;;18.27;100.00
21980;BME280;11154;48.558;9.234;2023-08-06T00:24:21;96788.75;;;18.25;100.00
21980;BME280;11154;48.558;9.234;2023-08-06T00:26:24;96786.88;;;18.25;100.00
21980;BME280;11154;48.558;9.234;2023-08-06T00:28:25;96788.53;;;18.26;100.00
21980;BME280;11154;48.558;9.234;2023-08-06T00:30:26;96778.03;;;18.18;100.00
21980;BME280;11154;48.558;9.234;2023-08-06T00:32:28;96779.09;;;18.17;100.00
21980;BME280;11154;48.558;9.234;2023-08-06T00:34:29;96791.94;;;18.15;100.00
21980;BME280;11154;48.558;9.234;2023-08-06T00:36:31;96788.88;;;18.12;100.00
21980;BME280;11154;48.558;9.234;2023-08-06T00:38:33;96787.09;;;18.06;100.00
21980;BME280;11154;48.558;9.234;2023-08-06T00:40:34;96792.09;;;18.03;100.00
21980;BME280;11154;48.558;9.234;2023-08-06T00:42:37;96794.56;;;18.04;100.00
21980;BME280;11154;48.558;9.234;2023-08-06T00:44:39;96787.78;;;18.02;100.00
21980;BME280;11154;48.558;9.234;2023-08-06T00:46:41;96774.09;;;18.03;100.00
21980;BME280;11154;48.558;9.234;2023-08-06T00:48:43;96780.69;;;18.07;100.00
21980;BME280;11154;48.558;9.234;2023-08-06T00:50:44;96783.13;;;18.08;100.00
21980;BME280;11154;48.558;9.234;2023-08-06T00:52:46;96770.97;;;18.06;100.00
21980;BME280;11154;48.558;9.234;2023-08-06T00:54:48;96769.91;;;18.07;100.00
21980;BME280;11154;48.558;9.234;2023-08-06T00:56:49;96767.78;;;18.09;100.00
21980;BME280;11154;48.558;9.234;2023-08-06T00:58:53;96769.91;;;18.07;100.00
21980;BME280;11154;48.558;9.234;2023-08-06T01:00:55;96761.47;;;18.04;100.00
21980;BME280;11154;48.558;9.234;2023-08-06T01:02:57;96766.00;;;18.03;100.00
21980;BME280;11154;48.558;9.234;2023-08-06T01:04:58;96767.28;;;18.01;100.00
21980;BME280;11154;48.558;9.234;2023-08-06T01:07:06;96765.19;;;18.03;100.00
21980;BME280;11154;48.558;9.234;2023-08-06T01:09:24;96771.19;;;18.05;100.00
21980;BME280;11154;48.558;9.234;2023-08-06T01:11:42;96775.34;;;18.01;100.00
21980;BME280;11154;48.558;9.234;2023-08-06T01:13:47;96768.78;;;17.97;100.00
21980;BME280;11154;48.558;9.234;2023-08-06T01:15:55;96765.97;;;17.92;100.00
21980;BME280;11154;48.558;9.234;2023-08-06T01:17:58;96783.16;;;17.91;100.00
21980;BME280;11154;48.558;9.234;2023-08-06T01:20:00;96781.13;;;17.86;100.00
21980;BME280;11154;48.558;9.234;2023-08-06T01:22:03;96781.78;;;17.82;100.00
21980;BME280;11154;48.558;9.234;2023-08-06T01:24:05;96775.00;;;17.79;100.00
21980;BME280;11154;48.558;9.234;2023-08-06T01:26:14;96771.94;;;17.76;100.00
21980;BME280;11154;48.558;9.234;2023-08-06T01:28:22;96772.59;;;17.71;100.00
21980;BME280;11154;48.558;9.234;2023-08-06T01:30:30;96777.59;;;17.68;100.00
21980;BME280;11154;48.558;9.234;2023-08-06T01:32:39;96778.22;;;17.70;100.00
21980;BME280;11154;48.558;9.234;2023-08-06T01:34:43;96777.53;;;17.74;100.00
21980;BME280;11154;48.558;9.234;2023-08-06T01:36:45;96771.41;;;17.67;100.00
21980;BME280;11154;48.558;9.234;2023-08-06T01:38:48;96762.75;;;17.65;100.00
21980;BME280;11154;48.558;9.234;2023-08-06T01:40:52;96772.31;;;17.61;100.00
21980;BME280;11154;48.558;9.234;2023-08-06T01:42:53;96764.25;;;17.61;100.00
21980;BME280;11154;48.558;9.234;2023-08-06T01:44:55;96761.31;;;17.63;100.00
21980;BME280;11154;48.558;9.234;2023-08-06T01:46:57;96762.53;;;17.67;100.00
21980;BME280;11154;48.558;9.234;2023-08-06T01:48:58;96755.72;;;17.64;100.00
21980;BME280;11154;48.558;9.234;2023-08-06T01:51:00;96760.03;;;17.65;100.00
21980;BME280;11154;48.558;9.234;2023-08-06T01:53:02;96752.81;;;17.66;100.00
21980;BME280;11154;48.558;9.234;2023-08-06T01:55:05;96751.41;;;17.63;100.00
21980;BME280;11154;48.558;9.234;2023-08-06T01:57:07;96752.81;;;17.66;100.00
21980;BME280;11154;48.558;9.234;2023-08-06T01:59:08;96755.88;;;17.69;100.00
21980;BME280;11154;48.558;9.234;2023-08-06T02:01:10;96740.56;;;17.70;100.00
21980;BME280;11154;48.558;9.234;2023-08-06T02:03:12;96743.72;;;17.67;100.00
21980;BME280;11154;48.558;9.234;2023-08-06T02:05:13;96742.06;;;17.66;100.00
21980;BME280;11154;48.558;9.234;2023-08-06T02:07:15;96734.00;;;17.66;100.00
21980;BME280;11154;48.558;9.234;2023-08-06T02:09:16;96735.66;;;17.67;100.00
21980;BME280;11154;48.558;9.234;2023-08-06T02:11:19;96736.69;;;17.66;100.00
21980;BME280;11154;48.558;9.234;2023-08-06T02:13:21;96732.34;;;17.65;100.00
21980;BME280;11154;48.558;9.234;2023-08-06T02:15:23;96721.22;;;17.61;100.00
21980;BME280;11154;48.558;9.234;2023-08-06T02:17:24;96720.03;;;17.57;100.00
21980;BME280;11154;48.558;9.234;2023-08-06T02:19:26;96726.66;;;17.55;100.00
21980;BME280;11154;48.558;9.234;2023-08-06T02:21:27;96720.69;;;17.53;100.00
21980;BME280;11154;48.558;9.234;2023-08-06T02:23:29;96718.00;;;17.53;100.00
21980;BME280;11154;48.558;9.234;2023-08-06T02:25:31;96712.84;;;17.51;100.00
21980;BME280;11154;48.558;9.234;2023-08-06T02:27:34;96702.56;;;17.48;100.00
21980;BME280;11154;48.558;9.234;2023-08-06T02:29:35;96699.84;;;17.48;100.00
21980;BME280;11154;48.558;9.234;2023-08-06T02:31:37;96700.53;;;17.44;100.00
21980;BME280;11154;48.558;9.234;2023-08-06T02:33:39;96696.19;;;17.43;100.00
21980;BME280;11154;48.558;9.234;2023-08-06T02:35:40;96700.28;;;17.45;100.00
21980;BME280;11154;48.558;9.234;2023-08-06T02:37:42;96703.16;;;17.50;100.00
21980;BME280;11154;48.558;9.234;2023-08-06T02:39:44;96700.22;;;17.52;100.00
21980;BME280;11154;48.558;9.234;2023-08-06T02:41:45;96695.47;;;17.54;100.00
21980;BME280;11154;48.558;9.234;2023-08-06T02:43:49;96694.25;;;17.50;100.00
21980;BME280;11154;48.558;9.234;2023-08-06T02:45:51;96686.41;;;17.48;100.00
21980;BME280;11154;48.558;9.234;2023-08-06T02:47:51;96692.84;;;17.47;100.00
21980;BME280;11154;48.558;9.234;2023-08-06T02:49:53;96680.91;;;17.43;100.00
21980;BME280;11154;48.558;9.234;2023-08-06T02:51:54;96690.00;;;17.42;100.00
21980;BME280;11154;48.558;9.234;2023-08-06T02:53:56;96681.34;;;17.40;100.00
21980;BME280;11154;48.558;9.234;2023-08-06T02:55:58;96685.75;;;17.35;100.00
21980;BME280;11154;48.558;9.234;2023-08-06T02:58:00;96670.28;;;17.31;100.00
21980;BME280;11154;48.558;9.234;2023-08-06T03:00:04;96684.78;;;17.30;100.00
21980;BME280;11154;48.558;9.234;2023-08-06T03:02:06;96678.69;;;17.16;100.00
21980;BME280;11154;48.558;9.234;2023-08-06T03:04:08;96673.16;;;17.11;100.00
21980;BME280;11154;48.558;9.234;2023-08-06T03:06:09;96661.97;;;17.14;100.00
21980;BME280;11154;48.558;9.234;2023-08-06T03:08:11;96667.78;;;17.11;100.00
21980;BME280;11154;48.558;9.234;2023-08-06T03:10:12;96667.38;;;17.08;100.00
21980;BME280;11154;48.558;9.234;2023-08-06T03:12:14;96671.50;;;17.10;100.00
21980;BME280;11154;48.558;9.234;2023-08-06T03:14:16;96657.47;;;17.08;100.00
21980;BME280;11154;48.558;9.234;2023-08-06T03:16:19;96657.69;;;17.07;100.00
21980;BME280;11154;48.558;9.234;2023-08-06T03:18:20;96654.19;;;17.06;100.00
21980;BME280;11154;48.558;9.234;2023-08-06T03:20:22;96655.22;;;17.05;100.00
21980;BME280;11154;48.558;9.234;2023-08-06T03:22:25;96648.22;;;17.04;100.00
21980;BME280;11154;48.558;9.234;2023-08-06T03:24:26;96641.22;;;17.03;100.00
21980;BME280;11154;48.558;9.234;2023-08-06T03:26:28;96646.50;;;17.10;100.00
21980;BME280;11154;48.558;9.234;2023-08-06T03:28:30;96657.88;;;17.12;100.00
21980;BME280;11154;48.558;9.234;2023-08-06T03:30:31;96657.19;;;17.16;100.00
21980;BME280;11154;48.558;9.234;2023-08-06T03:32:34;96652.88;;;17.15;100.00
21980;BME280;11154;48.558;9.234;2023-08-06T03:34:36;96653.31;;;17.12;100.00
21980;BME280;11154;48.558;9.234;2023-08-06T03:36:36;96651.88;;;17.10;100.00
21980;BME280;11154;48.558;9.234;2023-08-06T03:38:38;96657.41;;;17.15;100.00
21980;BME280;11154;48.558;9.234;2023-08-06T03:40:40;96661.50;;;17.17;100.00
21980;BME280;11154;48.558;9.234;2023-08-06T03:42:41;96658.00;;;17.17;100.00
21980;BME280;11154;48.558;9.234;2023-08-06T03:44:43;96652.41;;;17.18;100.00
21980;BME280;11154;48.558;9.234;2023-08-06T03:46:44;96662.91;;;17.20;100.00
21980;BME280;11154;48.558;9.234;2023-08-06T03:48:46;96664.19;;;17.17;100.00
21980;BME280;11154;48.558;9.234;2023-08-06T03:50:48;96662.56;;;17.16;100.00
21980;BME280;11154;48.558;9.234;2023-08-06T03:52:50;96665.47;;;17.15;100.00
21980;BME280;11154;48.558;9.234;2023-08-06T03:54:51;96661.34;;;17.12;100.00
21980;BME280;11154;48.558;9.234;2023-08-06T03:56:53;96657.63;;;17.13;100.00
21980;BME280;11154;48.558;9.234;2023-08-06T03:58:54;96662.78;;;17.15;100.00
21980;BME280;11154;48.558;9.234;2023-08-06T04:00:59;96655.56;;;17.15;100.00
21980;BME280;11154;48.558;9.234;2023-08-06T04:03:01;96662.78;;;17.15;100.00
21980;BME280;11154;48.558;9.234;2023-08-06T04:05:04;96660.22;;;17.20;100.00
21980;BME280;11154;48.558;9.234;2023-08-06T04:07:06;96663.91;;;17.25;100.00
21980;BME280;11154;48.558;9.234;2023-08-06T04:09:08;96661.56;;;17.35;100.00
21980;BME280;11154;48.558;9.234;2023-08-06T04:11:09;96659.59;;;17.42;100.00
21980;BME280;11154;48.558;9.234;2023-08-06T04:13:12;96656.25;;;17.46;100.00
21980;BME280;11154;48.558;9.234;2023-08-06T04:15:13;96657.28;;;17.45;100.00
21980;BME280;11154;48.558;9.234;2023-08-06T04:17:14;96655.03;;;17.60;100.00
21980;BME280;11154;48.558;9.234;2023-08-06T04:19:15;96668.06;;;17.63;100.00
21980;BME280;11154;48.558;9.234;2023-08-06T04:21:18;96662.97;;;17.55;100.00
21980;BME280;11154;48.558;9.234;2023-08-06T04:23:20;96660.28;;;17.55;100.00
21980;BME280;11154;48.558;9.234;2023-08-06T04:25:22;96657.22;;;17.52;100.00
21980;BME280;11154;48.558;9.234;2023-08-06T04:27:23;96659.78;;;17.47;100.00
21980;BME280;11154;48.558;9.234;2023-08-06T04:29:25;96663.50;;;17.46;100.00
21980;BME280;11154;48.558;9.234;2023-08-06T04:31:28;96654.22;;;17.42;100.00
21980;BME280;11154;48.558;9.234;2023-08-06T04:33:30;96659.31;;;17.32;100.00
21980;BME280;11154;48.558;9.234;2023-08-06T04:35:31;96662.44;;;17.29;100.00
21980;BME280;11154;48.558;9.234;2023-08-06T04:37:34;96668.91;;;17.22;100.00
21980;BME280;11154;48.558;9.234;2023-08-06T04:39:36;96671.34;;;17.23;100.00
21980;BME280;11154;48.558;9.234;2023-08-06T04:41:38;96655.84;;;17.25;100.00
21980;BME280;11154;48.558;9.234;2023-08-06T04:43:39;96653.00;;;17.20;100.00
21980;BME280;11154;48.558;9.234;2023-08-06T04:45:45;96668.28;;;17.20;100.00
21980;BME280;11154;48.558;9.234;2023-08-06T04:47:46;96672.44;;;17.22;100.00
21980;BME280;11154;48.558;9.234;2023-08-06T04:49:48;96670.31;;;17.24;100.00
21980;BME280;11154;48.558;9.234;2023-08-06T04:51:50;96680.66;;;17.27;100.00
21980;BME280;11154;48.558;9.234;2023-08-06T04:53:52;96680.00;;;17.32;100.00
21980;BME280;11154;48.558;9.234;2023-08-06T04:55:53;96675.22;;;17.34;100.00
21980;BME280;11154;48.558;9.234;2023-08-06T04:57:55;96675.81;;;17.36;100.00
21980;BME280;11154;48.558;9.234;2023-08-06T04:59:56;96672.66;;;17.38;100.00
21980;BME280;11154;48.558;9.234;2023-08-06T05:01:58;96676.78;;;17.41;100.00
21980;BME280;11154;48.558;9.234;2023-08-06T05:03:59;96669.78;;;17.40;100.00
21980;BME280;11154;48.558;9.234;2023-08-06T05:06:01;96663.94;;;17.43;100.00
21980;BME280;11154;48.558;9.234;2023-08-06T05:08:03;96672.59;;;17.45;100.00
21980;BME280;11154;48.558;9.234;2023-08-06T05:10:07;96673.88;;;17.42;100.00
21980;BME280;11154;48.558;9.234;2023-08-06T05:12:09;96675.97;;;17.40;100.00
21980;BME280;11154;48.558;9.234;2023-08-06T05:14:10;96670.97;;;17.44;100.00
21980;BME280;11154;48.558;9.234;2023-08-06T05:16:12;96675.91;;;17.47;100.00
21980;BME280;11154;48.558;9.234;2023-08-06T05:18:13;96677.97;;;17.45;100.00
21980;BME280;11154;48.558;9.234;2023-08-06T05:20:15;96671.56;;;17.46;100.00
21980;BME280;11154;48.558;9.234;2023-08-06T05:22:17;96665.53;;;17.50;100.00
21980;BME280;11154;48.558;9.234;2023-08-06T05:24:19;96670.56;;;17.58;100.00
21980;BME280;11154;48.558;9.234;2023-08-06T05:26:22;96673.19;;;17.65;100.00
21980;BME280;11154;48.558;9.234;2023-08-06T05:28:23;96666.31;;;17.69;100.00
21980;BME280;11154;48.558;9.234;2023-08-06T05:30:24;96665.25;;;17.70;100.00
21980;BME280;11154;48.558;9.234;2023-08-06T05:32:25;96670.41;;;17.71;100.00
21980;BME280;11154;48.558;9.234;2023-08-06T05:34:27;96679.69;;;17.75;100.00
21980;BME280;11154;48.558;9.234;2023-08-06T05:36:28;96674.38;;;17.69;100.00
21980;BME280;11154;48.558;9.234;2023-08-06T05:38:30;96681.41;;;17.70;100.00
21980;BME280;11154;48.558;9.234;2023-08-06T05:40:33;96683.84;;;17.71;100.00
21980;BME280;11154;48.558;9.234;2023-08-06T05:42:36;96688.78;;;17.74;100.00
21980;BME280;11154;48.558;9.234;2023-08-06T05:44:37;96682.50;;;17.80;100.00
21980;BME280;11154;48.558;9.234;2023-08-06T05:46:38;96684.16;;;17.81;100.00
21980;BME280;11154;48.558;9.234;2023-08-06T05:48:40;96686.72;;;17.76;100.00
21980;BME280;11154;48.558;9.234;2023-08-06T05:50:41;96686.25;;;17.79;100.00
21980;BME280;11154;48.558;9.234;2023-08-06T05:52:43;96683.78;;;17.78;100.00
21980;BME280;11154;48.558;9.234;2023-08-06T05:54:43;96691.63;;;17.79;100.00
21980;BME280;11154;48.558;9.234;2023-08-06T05:56:45;96692.22;;;17.81;100.00
21980;BME280;11154;48.558;9.234;2023-08-06T05:58:48;96689.53;;;17.81;100.00
21980;BME280;11154;48.558;9.234;2023-08-06T06:00:53;96706.84;;;17.85;100.00
21980;BME280;11154;48.558;9.234;2023-08-06T06:02:54;96708.72;;;17.85;100.00
21980;BME280;11154;48.558;9.234;2023-08-06T06:04:56;96704.63;;;17.82;100.00
21980;BME280;11154;48.558;9.234;2023-08-06T06:06:58;96706.47;;;17.82;100.00
21980;BME280;11154;48.558;9.234;2023-08-06T06:08:59;96704.84;;;17.81;100.00
21980;BME280;11154;48.558;9.234;2023-08-06T06:11:01;96719.94;;;17.82;100.00
21980;BME280;11154;48.558;9.234;2023-08-06T06:13:02;96704.84;;;17.81;100.00
21980;BME280;11154;48.558;9.234;2023-08-06T06:15:06;96716.66;;;17.80;100.00
21980;BME280;11154;48.558;9.234;2023-08-06T06:17:08;96704.41;;;17.84;100.00
21980;BME280;11154;48.558;9.234;2023-08-06T06:19:09;96711.41;;;17.85;100.00
21980;BME280;11154;48.558;9.234;2023-08-06T06:21:11;96704.25;;;17.79;100.00
21980;BME280;11154;48.558;9.234;2023-08-06T06:23:13;96719.56;;;17.78;100.00
21980;BME280;11154;48.558;9.234;2023-08-06T06:25:15;96713.97;;;17.80;100.00
21980;BME280;11154;48.558;9.234;2023-08-06T06:27:16;96723.00;;;17.85;100.00
21980;BME280;11154;48.558;9.234;2023-08-06T06:29:18;96718.88;;;17.83;100.00
21980;BME280;11154;48.558;9.234;2023-08-06T06:31:21;96723.22;;;17.84;100.00
21980;BME280;11154;48.558;9.234;2023-08-06T06:33:22;96731.06;;;17.85;100.00
21980;BME280;11154;48.558;9.234;2023-08-06T06:35:24;96727.09;;;17.88;100.00
21980;BME280;11154;48.558;9.234;2023-08-06T06:37:26;96729.22;;;17.86;100.00
21980;BME280;11154;48.558;9.234;2023-08-06T06:39:27;96729.22;;;17.86;100.00
21980;BME280;11154;48.558;9.234;2023-08-06T06:41:28;96731.72;;;17.81;100.00
21980;BME280;11154;48.558;9.234;2023-08-06T06:43:32;96724.72;;;17.80;100.00
21980;BME280;11154;48.558;9.234;2023-08-06T06:45:33;96730.19;;;17.73;100.00
21980;BME280;11154;48.558;9.234;2023-08-06T06:47:36;96729.94;;;17.75;100.00
21980;BME280;11154;48.558;9.234;2023-08-06T06:49:37;96733.47;;;17.75;100.00
21980;BME280;11154;48.558;9.234;2023-08-06T06:51:39;96735.69;;;17.78;100.00
21980;BME280;11154;48.558;9.234;2023-08-06T06:53:40;96732.19;;;17.78;100.00
21980;BME280;11154;48.558;9.234;2023-08-06T06:55:42;96743.75;;;17.78;100.00
21980;BME280;11154;48.558;9.234;2023-08-06T06:57:42;96733.00;;;17.78;100.00
21980;BME280;11154;48.558;9.234;2023-08-06T06:59:44;96730.94;;;17.80;100.00
21980;BME280;11154;48.558;9.234;2023-08-06T07:01:46;96734.41;;;17.81;100.00
21980;BME280;11154;48.558;9.234;2023-08-06T07:03:49;96739.22;;;17.79;100.00
21980;BME280;11154;48.558;9.234;2023-08-06T07:05:50;96737.94;;;17.81;100.00
21980;BME280;11154;48.558;9.234;2023-08-06T07:07:52;96734.28;;;17.76;100.00
21980;BME280;11154;48.558;9.234;2023-08-06T07:09:54;96733.97;;;17.84;100.00
21980;BME280;11154;48.558;9.234;2023-08-06T07:11:55;96735.16;;;17.88;100.00
21980;BME280;11154;48.558;9.234;2023-08-06T07:13:57;96730.38;;;17.90;100.00
21980;BME280;11154;48.558;9.234;2023-08-06T07:15:59;96725.44;;;17.87;100.00
21980;BME280;11154;48.558;9.234;2023-08-06T07:18:01;96732.03;;;17.91;100.00
21980;BME280;11154;48.558;9.234;2023-08-06T07:20:05;96736.94;;;17.94;100.00
21980;BME280;11154;48.558;9.234;2023-08-06T07:22:07;96735.66;;;17.96;100.00
21980;BME280;11154;48.558;9.234;2023-08-06T07:24:09;96739.81;;;17.99;100.00
21980;BME280;11154;48.558;9.234;2023-08-06T07:26:11;96743.91;;;18.01;100.00
21980;BME280;11154;48.558;9.234;2023-08-06T07:28:13;96743.69;;;18.03;100.00
21980;BME280;11154;48.558;9.234;2023-08-06T07:30:15;96737.69;;;18.01;100.00
21980;BME280;11154;48.558;9.234;2023-08-06T07:32:17;96746.44;;;17.96;100.00
21980;BME280;11154;48.558;9.234;2023-08-06T07:34:18;96745.88;;;17.94;100.00
21980;BME280;11154;48.558;9.234;2023-08-06T07:36:21;96744.44;;;17.92;100.00
21980;BME280;11154;48.558;9.234;2023-08-06T07:38:23;96748.63;;;17.88;100.00
21980;BME280;11154;48.558;9.234;2023-08-06T07:40:25;96756.09;;;17.86;100.00
21980;BME280;11154;48.558;9.234;2023-08-06T07:42:26;96750.72;;;17.86;100.00
21980;BME280;11154;48.558;9.234;2023-08-06T07:44:28;96751.97;;;17.83;100.00
21980;BME280;11154;48.558;9.234;2023-08-06T07:46:30;96747.66;;;17.82;100.00
21980;BME280;11154;48.558;9.234;2023-08-06T07:48:32;96757.44;;;17.77;100.00
21980;BME280;11154;48.558;9.234;2023-08-06T07:50:33;96753.47;;;17.79;100.00
21980;BME280;11154;48.558;9.234;2023-08-06T07:52:36;96757.34;;;17.83;100.00
21980;BME280;11154;48.558;9.234;2023-08-06T07:54:38;96748.09;;;17.79;100.00
21980;BME280;11154;48.558;9.234;2023-08-06T07:56:38;96753.25;;;17.81;100.00
21980;BME280;11154;48.558;9.234;2023-08-06T07:58:40;96759.09;;;17.78;100.00
21980;BME280;11154;48.558;9.234;2023-08-06T08:00:42;96758.06;;;17.79;100.00
21980;BME280;11154;48.558;9.234;2023-08-06T08:02:44;96756.84;;;17.75;100.00
21980;BME280;11154;48.558;9.234;2023-08-06T08:04:46;96757.88;;;17.74;100.00
21980;BME280;11154;48.558;9.234;2023-08-06T08:06:48;96770.66;;;17.78;100.00
21980;BME280;11154;48.558;9.234;2023-08-06T08:08:51;96759.91;;;17.78;100.00
21980;BME280;11154;48.558;9.234;2023-08-06T08:10:54;96750.78;;;17.79;100.00
21980;BME280;11154;48.558;9.234;2023-08-06T08:12:55;96759.22;;;17.83;100.00
21980;BME280;11154;48.558;9.234;2023-08-06T08:14:57;96758.19;;;17.84;100.00
21980;BME280;11154;48.558;9.234;2023-08-06T08:16:58;96750.25;;;17.89;100.00
21980;BME280;11154;48.558;9.234;2023-08-06T08:18:59;96749.34;;;17.95;100.00
21980;BME280;11154;48.558;9.234;2023-08-06T08:21:01;96755.13;;;17.98;100.00
21980;BME280;11154;48.558;9.234;2023-08-06T08:23:03;96753.84;;;18.01;100.00
21980;BME280;11154;48.558;9.234;2023-08-06T08:25:07;96750.09;;;18.02;100.00
21980;BME280;11154;48.558;9.234;2023-08-06T08:27:08;96753.78;;;18.07;100.00
21980;BME280;11154;48.558;9.234;2023-08-06T08:29:10;96759.06;;;18.13;100.00
21980;BME280;11154;48.558;9.234;2023-08-06T08:31:11;96758.09;;;18.08;100.00
21980;BME280;11154;48.558;9.234;2023-08-06T08:33:13;96758.25;;;18.13;100.00
21980;BME280;11154;48.558;9.234;2023-08-06T08:35:14;96763.13;;;18.05;100.00
21980;BME280;11154;48.558;9.234;2023-08-06T08:37:16;96754.69;;;18.01;100.00
21980;BME280;11154;48.558;9.234;2023-08-06T08:39:16;96753.09;;;17.94;100.00
21980;BME280;11154;48.558;9.234;2023-08-06T08:41:20;96748.19;;;17.91;100.00
21980;BME280;11154;48.558;9.234;2023-08-06T08:43:22;96756.81;;;17.93;100.00
21980;BME280;11154;48.558;9.234;2023-08-06T08:45:26;96767.44;;;17.88;100.00
21980;BME280;11154;48.558;9.234;2023-08-06T08:47:30;96760.13;;;17.95;100.00
21980;BME280;11154;48.558;9.234;2023-08-06T08:49:33;96764.09;;;17.92;100.00
21980;BME280;11154;48.558;9.234;2023-08-06T08:51:36;96756.81;;;17.93;100.00
21980;BME280;11154;48.558;9.234;2023-08-06T08:53:39;96753.31;;;17.92;100.00
21980;BME280;11154;48.558;9.234;2023-08-06T08:55:43;96761.78;;;17.96;100.00
21980;BME280;11154;48.558;9.234;2023-08-06T08:57:47;96769.41;;;17.99;100.00
21980;BME280;11154;48.558;9.234;2023-08-06T08:59:48;96757.75;;;18.05;100.00
21980;BME280;11154;48.558;9.234;2023-08-06T09:01:51;96757.75;;;18.05;100.00
21980;BME280;11154;48.558;9.234;2023-08-06T09:03:55;96767.66;;;18.04;100.00
21980;BME280;11154;48.558;9.234;2023-08-06T09:05:57;96764.16;;;18.04;100.00
21980;BME280;11154;48.558;9.234;2023-08-06T09:08:03;96770.72;;;18.08;100.00
21980;BME280;11154;48.558;9.234;2023-08-06T09:10:07;96769.31;;;18.05;100.00
21980;BME280;11154;48.558;9.234;2023-08-06T09:12:14;96779.84;;;18.07;100.00
21980;BME280;11154;48.558;9.234;2023-08-06T09:14:17;96782.09;;;18.09;100.00
21980;BME280;11154;48.558;9.234;2023-08-06T09:16:19;96774.03;;;18.09;100.00
21980;BME280;11154;48.558;9.234;2023-08-06T09:18:25;96779.03;;;18.06;100.00
21980;BME280;11154;48.558;9.234;2023-08-06T09:20:26;96784.78;;;18.09;100.00
21980;BME280;11154;48.558;9.234;2023-08-06T09:22:33;96797.63;;;18.08;100.00
21980;BME280;11154;48.558;9.234;2023-08-06T09:24:38;96787.78;;;18.02;100.00
21980;BME280;11154;48.558;9.234;2023-08-06T09:26:40;96788.81;;;18.01;100.00
21980;BME280;11154;48.558;9.234;2023-08-06T09:28:42;96785.38;;;17.94;100.00
21980;BME280;11154;48.558;9.234;2023-08-06T09:30:47;96786.06;;;17.89;100.00
21980;BME280;11154;48.558;9.234;2023-08-06T09:32:49;96778.34;;;17.93;100.00
21980;BME280;11154;48.558;9.234;2023-08-06T09:34:55;96781.78;;;18.00;100.00
21980;BME280;11154;48.558;9.234;2023-08-06T09:36:57;96775.72;;;18.04;100.00
21980;BME280;11154;48.558;9.234;2023-08-06T09:38:58;96775.28;;;18.07;100.00
21980;BME280;11154;48.558;9.234;2023-08-06T09:41:00;96779.41;;;18.09;100.00
21980;BME280;11154;48.558;9.234;2023-08-06T09:43:02;96780.72;;;18.18;100.00
21980;BME280;11154;48.558;9.234;2023-08-06T09:45:06;96781.28;;;18.27;100.00
21980;BME280;11154;48.558;9.234;2023-08-06T09:47:09;96774.31;;;18.19;100.00
21980;BME280;11154;48.558;9.234;2023-08-06T09:49:11;96786.75;;;18.20;100.00
21980;BME280;11154;48.558;9.234;2023-08-06T09:51:13;96775.19;;;18.13;100.00
21980;BME280;11154;48.558;9.234;2023-08-06T09:53:15;96777.31;;;18.11;100.00
21980;BME280;11154;48.558;9.234;2023-08-06T09:55:18;96781.47;;;18.08;100.00
21980;BME280;11154;48.558;9.234;2023-08-06T09:57:20;96789.19;;;18.04;100.00
21980;BME280;11154;48.558;9.234;2023-08-06T09:59:22;96798.53;;;18.02;100.00
21980;BME280;11154;48.558;9.234;2023-08-06T10:01:24;96787.41;;;17.98;100.00
21980;BME280;11154;48.558;9.234;2023-08-06T10:03:27;96793.63;;;17.99;100.00
21980;BME280;11154;48.558;9.234;2023-08-06T10:05:31;96797.13;;;17.99;100.00
21980;BME280;11154;48.558;9.234;2023-08-06T10:07:33;96785.22;;;18.07;100.00
21980;BME280;11154;48.558;9.234;2023-08-06T10:09:35;96791.28;;;18.02;100.00
21980;BME280;11154;48.558;9.234;2023-08-06T10:11:37;96798.16;;;17.98;100.00
21980;BME280;11154;48.558;9.234;2023-08-06T10:13:39;96792.78;;;17.98;100.00
21980;BME280;11154;48.558;9.234;2023-08-06T10:15:41;96790.56;;;17.95;100.00
21980;BME280;11154;48.558;9.234;2023-08-06T10:17:43;96799.28;;;17.91;100.00
21980;BME280;11154;48.558;9.234;2023-08-06T10:19:49;96797.78;;;17.95;100.00
21980;BME280;11154;48.558;9.234;2023-08-06T10:22:10;96802.41;;;17.88;100.00
21980;BME280;11154;48.558;9.234;2023-08-06T10:24:13;96795.63;;;17.85;100.00
21980;BME280;11154;48.558;9.234;2023-08-06T10:26:16;96798.31;;;17.85;100.00
21980;BME280;11154;48.558;9.234;2023-08-06T10:28:18;96801.00;;;17.85;100.00
21980;BME280;11154;48.558;9.234;2023-08-06T10:30:25;96797.03;;;17.88;100.00
21980;BME280;11154;48.558;9.234;2023-08-06T10:32:48;96808.63;;;17.88;100.00
21980;BME280;11154;48.558;9.234;2023-08-06T10:34:55;96809.00;;;17.92;100.00
21980;BME280;11154;48.558;9.234;2023-08-06T10:36:57;96807.75;;;17.94;100.00
21980;BME280;11154;48.558;9.234;2023-08-06T10:38:59;96820.56;;;17.92;100.00
21980;BME280;11154;48.558;9.234;2023-08-06T10:41:03;96808.63;;;17.88;100.00